Terminal Aerodrome Forecast
Issued by NWS Lubbock, TX

Current Version | Previous Version | Text Only | Print | Product List | Glossary On
Versions: 1 2 3 4 5 6 7 8 9 10 11 12 13 14 15 16
000
FTUS44 KLUB 280500
TAFLBB
TAF
KLBB 280520Z 2806/2906 06012KT P6SM FEW100 FEW200
     FM281800 11009KT P6SM BKN080 BKN200 PROB30 2821/2903 -TSRA
      BKN040CB=

USA.gov is the U.S. government's official web portal to all federal, state and local government web resources and services.